Time;durP1;ratioP1;P1;durP2;ratioP2;P2;SDS_P1;SDS_P2;PMS_P1;PMS_P2;Temp;Humidity;BMP_temperature;BMP_pressure;BME280_temperature;BME280_humidity;BME280_pressure;Samples;Min_cycle;Max_cycle;Signal;HPM_P1;HPM_P2
2022/07/16 00:03:35;;;;;;;687.33;320.23;;;15.40;1.00;;;;;;5015138;28;20267;-90
2022/07/16 00:06:03;;;;;;;684.50;315.03;;;15.30;1.00;;;;;;5008955;28;20284;-89
2022/07/16 00:08:30;;;;;;;684.13;321.67;;;15.30;1.00;;;;;;5008496;28;20219;-90
2022/07/16 00:10:57;;;;;;;684.30;316.93;;;15.20;1.00;;;;;;5014881;28;20220;-90
2022/07/16 00:13:24;;;;;;;685.47;323.53;;;15.20;1.00;;;;;;5015166;28;20223;-90
2022/07/16 00:15:53;;;;;;;681.30;310.97;;;15.10;1.00;;;;;;4998113;28;20202;-89
2022/07/16 00:21:07;;;;;;;674.67;301.50;;;15.10;1.00;;;;;;5013263;28;20284;-91
2022/07/16 00:23:34;;;;;;;684.90;307.27;;;15.00;1.00;;;;;;5014959;28;20665;-90
2022/07/16 00:26:01;;;;;;;681.93;306.73;;;15.00;1.00;;;;;;5001945;28;20199;-89
2022/07/16 00:28:29;;;;;;;678.93;297.47;;;14.90;1.00;;;;;;5014969;28;20219;-89
2022/07/16 00:30:56;;;;;;;682.60;307.27;;;14.90;1.00;;;;;;5014781;28;20303;-89
2022/07/16 00:33:23;;;;;;;682.80;306.23;;;14.90;1.00;;;;;;5012522;28;20226;-89
2022/07/16 00:35:50;;;;;;;682.60;301.73;;;14.80;1.00;;;;;;5014752;28;20200;-88
2022/07/16 00:38:19;;;;;;;678.93;302.27;;;14.80;1.00;;;;;;5014867;28;20265;-89
2022/07/16 00:40:46;;;;;;;680.00;299.53;;;14.80;1.00;;;;;;5014982;28;20212;-90
2022/07/16 00:43:14;;;;;;;680.87;299.47;;;14.70;1.00;;;;;;5014419;28;20282;-90
2022/07/16 00:45:42;;;;;;;681.87;302.30;;;14.70;1.00;;;;;;5014441;28;20304;-91
2022/07/16 00:48:11;;;;;;;680.13;298.87;;;14.70;1.00;;;;;;5014868;28;20200;-90
2022/07/16 00:50:39;;;;;;;679.13;297.50;;;14.70;1.00;;;;;;5014415;28;20663;-90
2022/07/16 00:53:09;;;;;;;679.77;296.07;;;14.70;14.00;;;;;;5012299;28;20261;-90
2022/07/16 00:55:39;;;;;;;672.90;288.10;;;14.60;39.70;;;;;;5014658;28;20228;-90
2022/07/16 00:58:07;;;;;;;672.37;290.10;;;14.60;44.30;;;;;;5014453;28;20207;-89
2022/07/16 01:00:34;;;;;;;677.43;294.07;;;14.60;62.50;;;;;;5010630;28;20645;-90
2022/07/16 01:03:05;;;;;;;679.63;294.73;;;14.50;54.80;;;;;;5014083;28;20199;-90
2022/07/16 01:05:33;;;;;;;675.70;286.47;;;14.40;90.00;;;;;;5014249;28;20301;-90
2022/07/16 01:08:00;;;;;;;675.10;292.33;;;14.40;96.70;;;;;;5014480;28;20213;-90
2022/07/16 01:10:28;;;;;;;668.23;289.07;;;14.40;99.90;;;;;;5008166;28;20199;-90
2022/07/16 01:12:59;;;;;;;668.10;279.80;;;14.40;99.90;;;;;;5013889;28;20217;-90
2022/07/16 01:15:27;;;;;;;666.93;275.67;;;14.30;99.90;;;;;;5014086;28;20207;-90
2022/07/16 01:17:54;;;;;;;668.77;273.17;;;14.40;99.90;;;;;;5000495;28;20274;-91
2022/07/16 01:20:22;;;;;;;667.20;276.27;;;14.40;99.90;;;;;;5014254;28;20737;-91
2022/07/16 01:22:49;;;;;;;670.00;280.50;;;14.40;99.90;;;;;;5014467;28;20665;-91
2022/07/16 01:25:18;;;;;;;666.53;271.80;;;14.40;99.90;;;;;;5003641;28;20220;-91
2022/07/16 01:27:45;;;;;;;667.03;273.17;;;14.30;99.90;;;;;;5011254;28;20216;-91
2022/07/16 01:30:13;;;;;;;667.80;277.23;;;14.30;99.90;;;;;;5013324;28;20277;-90
2022/07/16 01:32:40;;;;;;;667.17;273.47;;;14.20;99.90;;;;;;5013489;28;20222;-90
2022/07/16 01:35:08;;;;;;;667.63;277.93;;;14.20;99.90;;;;;;5013962;28;20232;-90
2022/07/16 01:37:36;;;;;;;657.07;270.73;;;14.20;99.90;;;;;;5013546;28;20727;-90
2022/07/16 01:40:04;;;;;;;657.40;264.10;;;14.10;99.90;;;;;;4994956;28;20288;-89
2022/07/16 01:42:33;;;;;;;656.07;264.07;;;14.10;99.90;;;;;;5006909;28;20293;-90
2022/07/16 01:45:00;;;;;;;656.30;268.87;;;14.00;99.90;;;;;;5013885;28;20250;-91
2022/07/16 01:47:28;;;;;;;656.90;264.00;;;14.00;99.90;;;;;;5013684;28;20333;-90
2022/07/16 01:49:55;;;;;;;655.53;262.63;;;13.90;99.90;;;;;;5003180;28;20264;-90
2022/07/16 01:52:23;;;;;;;656.50;265.77;;;13.90;99.90;;;;;;5013031;28;20280;-90
2022/07/16 01:54:52;;;;;;;655.13;262.50;;;13.80;99.90;;;;;;5013643;28;20256;-91
2022/07/16 01:57:20;;;;;;;655.03;260.43;;;13.70;99.90;;;;;;5013588;28;20205;-90
2022/07/16 01:59:49;;;;;;;654.77;257.07;;;13.70;99.90;;;;;;5013446;28;20228;-90
2022/07/16 02:02:17;;;;;;;651.67;256.40;;;13.60;99.90;;;;;;5013200;28;20593;-90
2022/07/16 02:04:44;;;;;;;650.57;253.80;;;13.60;99.90;;;;;;5013442;28;20652;-89
2022/07/16 02:07:11;;;;;;;649.57;249.37;;;13.50;99.90;;;;;;5013160;28;20235;-90
2022/07/16 02:09:39;;;;;;;646.00;241.20;;;13.50;99.90;;;;;;5008211;28;20347;-90
2022/07/16 02:12:06;;;;;;;641.47;239.73;;;13.90;1.00;;;;;;5013172;28;20224;-90
2022/07/16 02:14:34;;;;;;;640.53;234.73;;;13.60;1.00;;;;;;5013406;28;20296;-90
2022/07/16 02:17:03;;;;;;;640.93;242.07;;;13.50;1.00;;;;;;5012909;28;20252;-92
2022/07/16 02:19:30;;;;;;;640.80;241.50;;;13.30;1.00;;;;;;5007280;28;20206;-89
2022/07/16 02:22:00;;;;;;;638.37;238.30;;;13.40;1.00;;;;;;5013544;28;20209;-91
2022/07/16 02:24:27;;;;;;;631.23;233.73;;;13.30;1.00;;;;;;5013260;28;20211;-90
2022/07/16 02:26:54;;;;;;;632.23;236.33;;;13.10;1.00;;;;;;5002636;28;20270;-90
2022/07/16 02:29:22;;;;;;;629.57;231.53;;;13.10;1.00;;;;;;5009624;28;20207;-91
2022/07/16 02:31:49;;;;;;;627.80;227.57;;;13.10;1.00;;;;;;5012340;28;20295;-91
2022/07/16 02:34:18;;;;;;;629.00;233.77;;;13.10;1.00;;;;;;5013391;28;20248;-90
2022/07/16 02:36:45;;;;;;;625.87;220.27;;;13.10;1.00;;;;;;5012790;28;20210;-91
2022/07/16 02:39:12;;;;;;;633.57;232.37;;;13.10;1.00;;;;;;5012938;28;20280;-91
2022/07/16 02:41:39;;;;;;;629.50;241.37;;;13.10;1.00;;;;;;5012885;28;20259;-91
2022/07/16 02:44:07;;;;;;;628.03;235.87;;;13.10;1.00;;;;;;5012854;28;20549;-90
2022/07/16 02:46:34;;;;;;;626.80;234.33;;;13.10;1.00;;;;;;4999655;28;20256;-90
2022/07/16 02:49:02;;;;;;;630.77;235.23;;;13.10;1.00;;;;;;5013015;28;20230;-90
2022/07/16 02:51:31;;;;;;;624.67;230.27;;;13.00;1.00;;;;;;5016408;28;20301;-91
2022/07/16 02:53:58;;;;;;;622.27;228.80;;;13.00;1.00;;;;;;5016549;28;20574;-90
2022/07/16 02:56:25;;;;;;;623.67;232.23;;;13.00;1.00;;;;;;5013553;28;20225;-90
2022/07/16 02:58:53;;;;;;;621.20;229.13;;;13.00;1.00;;;;;;5013473;28;20248;-91
2022/07/16 03:01:20;;;;;;;617.23;223.70;;;;;;;;;;5008142;28;20725;-90
2022/07/16 03:03:47;;;;;;;618.13;223.67;;;12.90;1.00;;;;;;5014164;28;20204;-92
2022/07/16 03:06:14;;;;;;;617.90;225.23;;;12.90;1.00;;;;;;5016298;28;20263;-89
2022/07/16 03:08:43;;;;;;;618.87;227.47;;;13.00;1.00;;;;;;5111210;22;20234;-90
2022/07/16 03:11:17;;;;;;;620.47;226.03;;;13.00;1.00;;;;;;5037610;28;20214;-93
2022/07/16 03:13:44;;;;;;;620.07;230.37;;;13.00;1.00;;;;;;5035592;28;20204;-91
2022/07/16 03:16:12;;;;;;;616.33;224.53;;;13.10;1.00;;;;;;5040302;28;20600;-90
2022/07/16 03:18:45;;;;;;;615.07;225.30;;;13.10;1.00;;;;;;5033873;28;20212;-91
2022/07/16 03:21:15;;;;;;;612.93;224.97;;;13.10;1.00;;;;;;5036735;28;20226;-94
2022/07/16 03:23:44;;;;;;;614.93;232.23;;;13.10;1.00;;;;;;5037306;28;20255;-90
2022/07/16 03:26:11;;;;;;;615.90;232.13;;;13.10;1.00;;;;;;5109587;22;20246;-90
2022/07/16 03:28:39;;;;;;;612.43;230.03;;;13.20;1.00;;;;;;5037841;28;20228;-91
2022/07/16 03:31:06;;;;;;;613.67;232.07;;;13.20;1.00;;;;;;5035613;28;20198;-91
2022/07/16 03:33:59;;;;;;;611.67;226.83;;;13.20;1.00;;;;;;5104116;22;20656;-91
2022/07/16 03:36:26;;;;;;;612.23;229.23;;;13.30;95.90;;;;;;5137109;22;20252;-92
2022/07/16 03:39:04;;;;;;;615.00;242.37;;;13.20;1.00;;;;;;5036723;28;20209;-90
2022/07/16 03:41:32;;;;;;;609.53;234.47;;;13.30;1.00;;;;;;5035158;28;20204;-89
2022/07/16 03:43:59;;;;;;;612.87;234.43;;;13.30;1.00;;;;;;5039106;28;20263;-92
2022/07/16 03:46:31;;;;;;;616.20;237.87;;;13.30;1.00;;;;;;5037735;28;20198;-90
2022/07/16 03:48:58;;;;;;;617.03;244.03;;;13.40;1.00;;;;;;5035653;28;20221;-90
2022/07/16 03:54:12;;;;;;;615.47;245.33;;;13.50;11.20;;;;;;5087458;23;20245;-91
2022/07/16 03:56:40;;;;;;;611.37;235.10;;;13.60;99.90;;;;;;5003948;28;20202;-90
2022/07/16 03:59:08;;;;;;;618.60;250.33;;;13.70;99.90;;;;;;5070715;23;20322;-91
2022/07/16 04:04:23;;;;;;;618.50;248.80;;;14.00;32.90;;;;;;4996591;28;20206;-92
2022/07/16 04:06:51;;;;;;;621.40;253.03;;;14.10;18.90;;;;;;5000792;28;20273;-90
2022/07/16 04:09:19;;;;;;;622.53;249.70;;;14.20;1.00;;;;;;4995911;28;20201;-90
2022/07/16 04:11:47;;;;;;;623.43;255.10;;;14.30;4.10;;;;;;5067860;22;20244;-91
2022/07/16 04:14:14;;;;;;;621.60;258.03;;;14.40;1.00;;;;;;5070663;22;20783;-90
2022/07/16 04:16:41;;;;;;;626.17;267.53;;;14.50;1.00;;;;;;5002368;28;20267;-91
2022/07/16 04:19:09;;;;;;;622.90;264.33;;;14.60;1.00;;;;;;5067563;23;20246;-92
2022/07/16 04:21:36;;;;;;;625.40;265.53;;;14.60;1.00;;;;;;5038226;28;20701;-90
2022/07/16 04:24:04;;;;;;;627.57;272.97;;;14.70;1.00;;;;;;5032712;28;20214;-90
2022/07/16 04:26:32;;;;;;;632.83;273.13;;;14.90;1.00;;;;;;5037591;28;20307;-89
2022/07/16 04:29:00;;;;;;;628.57;270.60;;;15.00;1.00;;;;;;5034838;28;20202;-90
2022/07/16 04:31:36;;;;;;;631.30;278.53;;;15.30;23.50;;;;;;5042400;28;20210;-92
2022/07/16 04:34:03;;;;;;;634.53;288.30;;;16.00;1.00;;;;;;5036575;28;20286;-92
2022/07/16 04:36:31;;;;;;;637.47;295.33;;;16.80;1.00;;;;;;5035478;28;20291;-90
2022/07/16 04:38:58;;;;;;;642.13;304.97;;;17.50;99.90;;;;;;5070619;22;20237;-91
2022/07/16 04:41:25;;;;;;;641.17;311.30;;;17.70;1.00;;;;;;5014413;28;20206;-92
2022/07/16 04:43:54;;;;;;;640.70;313.60;;;17.60;1.00;;;;;;5015035;28;20195;-90
2022/07/16 04:46:21;;;;;;;644.73;320.43;;;17.50;99.90;;;;;;5015645;28;20272;-90
2022/07/16 04:48:49;;;;;;;649.07;329.43;;;17.50;99.90;;;;;;5016066;28;20221;-92
2022/07/16 04:51:16;;;;;;;650.93;333.40;;;17.90;1.00;;;;;;5018567;28;20237;-91
2022/07/16 04:53:44;;;;;;;654.57;347.37;;;19.00;1.00;;;;;;5013949;28;20226;-91
2022/07/16 04:56:11;;;;;;;;;;;20.00;1.00;;;;;;5017884;28;20212;-92
2022/07/16 04:58:38;;;;;;;;;;;20.90;1.00;;;;;;5015598;28;20327;-93
2022/07/16 05:01:07;;;;;;;;;;;22.10;99.90;;;;;;5014733;28;20035;-92
2022/07/16 05:03:33;;;;;;;;;;;22.40;1.00;;;;;;5016091;28;19928;-91
2022/07/16 05:05:59;;;;;;;;;;;22.10;1.00;;;;;;5051146;23;19921;-91
2022/07/16 05:08:26;;;;;;;;;;;21.80;1.00;;;;;;5006517;28;19906;-91
2022/07/16 05:10:53;;;;;;;;;;;21.30;1.00;;;;;;5020495;28;19944;-91
2022/07/16 05:13:20;;;;;;;;;;;20.80;1.00;;;;;;5023107;28;19921;-92
2022/07/16 05:15:47;;;;;;;;;;;20.40;1.00;;;;;;5015225;28;20287;-89
2022/07/16 05:18:15;;;;;;;;;;;20.00;1.00;;;;;;5001554;28;19925;-90
2022/07/16 05:23:46;;;;;;;;;;;19.20;1.00;;;;;;5016575;28;19929;-89
2022/07/16 05:26:12;;;;;;;;;;;18.80;1.00;;;;;;5008478;28;19925;-91
2022/07/16 05:28:51;;;;;;;;;;;18.50;1.00;;;;;;5016358;28;19929;-92
2022/07/16 05:31:23;;;;;;;;;;;18.40;1.00;;;;;;5006352;28;19983;-92
2022/07/16 05:33:55;;;;;;;;;;;18.20;1.00;;;;;;5008615;28;19980;-93
2022/07/16 05:36:22;;;;;;;;;;;17.90;1.00;;;;;;5014352;28;19922;-90
2022/07/16 05:38:49;;;;;;;;;;;17.80;1.00;;;;;;5010235;28;20012;-91
2022/07/16 07:42:36;;;;;;;632.60;256.80;;;14.40;1.00;;;;;;5049434;23;20231;-95
2022/07/16 07:45:04;;;;;;;632.73;263.97;;;14.40;97.30;;;;;;5103780;23;21154;-91
2022/07/16 07:47:31;;;;;;;629.20;255.30;;;14.40;87.90;;;;;;4960918;28;20202;-90
2022/07/16 07:50:08;;;;;;;631.57;253.23;;;14.40;80.80;;;;;;4963158;29;20244;-92
2022/07/16 07:52:36;;;;;;;628.97;252.87;;;14.40;99.90;;;;;;4961428;29;20218;-91
2022/07/16 07:55:04;;;;;;;626.17;253.77;;;14.40;99.90;;;;;;4964404;28;20221;-93
2022/07/16 07:57:34;;;;;;;629.40;254.97;;;14.40;1.00;;;;;;4960888;29;20209;-94
2022/07/16 08:00:02;;;;;;;629.33;257.37;;;14.40;1.00;;;;;;4964133;28;20236;-91
2022/07/16 08:02:29;;;;;;;627.50;256.67;;;14.40;99.90;;;;;;4944651;29;20229;-90
2022/07/16 08:05:09;;;;;;;625.87;254.63;;;14.40;99.90;;;;;;4959753;29;20651;-93
2022/07/16 08:07:41;;;;;;;625.27;253.80;;;14.40;1.00;;;;;;4953288;28;20198;-93
2022/07/16 08:10:53;;;;;;;626.00;255.27;;;14.40;1.00;;;;;;4963557;28;20400;-93
2022/07/16 08:13:22;;;;;;;625.63;252.17;;;14.50;99.90;;;;;;4986575;23;20305;-93
2022/07/16 08:16:00;;;;;;;625.10;253.40;;;14.60;1.00;;;;;;4967782;28;20218;-95
2022/07/16 08:18:27;;;;;;;624.03;254.33;;;14.70;1.00;;;;;;4963041;28;20716;-94
2022/07/16 08:21:16;;;;;;;640.50;262.47;;;14.80;99.90;;;;;;4960294;28;20565;-94
2022/07/16 08:26:31;;;;;;;637.93;265.47;;;14.90;1.00;;;;;;4937089;28;20229;-92
2022/07/16 08:29:00;;;;;;;640.83;266.83;;;14.90;1.00;;;;;;4948533;29;20212;-92
2022/07/16 08:31:27;;;;;;;640.07;269.73;;;15.00;68.90;;;;;;4954509;29;20271;-92
2022/07/16 08:36:31;;;;;;;634.57;273.10;;;15.00;1.00;;;;;;1141522;23;20544;-89
2022/07/16 08:39:35;;;;;;;634.17;273.47;;;15.20;1.00;;;;;;4936845;29;20251;-94
2022/07/16 08:42:28;;;;;;;631.63;275.23;;;15.50;99.90;;;;;;4923028;29;20202;-95
2022/07/16 08:44:59;;;;;;;637.23;282.63;;;16.10;1.00;;;;;;4938932;29;20205;-92
2022/07/16 08:47:27;;;;;;;634.40;288.57;;;16.30;1.00;;;;;;4923686;29;20565;-91
2022/07/16 08:49:55;;;;;;;636.33;286.67;;;16.60;1.00;;;;;;4935689;29;20212;-91
2022/07/16 08:52:27;;;;;;;642.13;305.80;;;17.10;1.00;;;;;;4933786;29;20208;-93
2022/07/16 08:54:55;;;;;;;645.05;318.15;;;18.00;99.90;;;;;;4942849;29;20204;-92
2022/07/16 08:57:25;;;;;;;646.83;330.83;;;19.20;99.90;;;;;;4930234;29;20280;-92
2022/07/16 08:59:53;;;;;;;;;;;19.70;1.00;;;;;;4929317;29;20288;-91
2022/07/16 09:02:21;;;;;;;;;;;20.30;99.90;;;;;;4932496;29;19934;-92
2022/07/16 09:04:48;;;;;;;;;;;21.30;1.00;;;;;;4935473;29;19933;-92
2022/07/16 09:07:16;;;;;;;;;;;21.50;99.90;;;;;;4937607;29;19966;-91
2022/07/16 09:09:44;;;;;;;;;;;21.30;1.00;;;;;;4931003;29;20138;-93
2022/07/16 09:12:11;;;;;;;;;;;21.10;1.00;;;;;;4938634;29;19950;-92
2022/07/16 09:14:39;;;;;;;;;;;21.00;99.90;;;;;;4938272;28;19927;-92
2022/07/16 09:17:06;;;;;;;;;;;20.70;1.00;;;;;;4935011;29;19933;-93
2022/07/16 09:19:34;;;;;;;;;;;20.20;1.00;;;;;;4933787;29;19927;-91
2022/07/16 09:22:03;;;;;;;;;;;19.70;1.00;;;;;;4932402;29;20009;-92
2022/07/16 09:24:34;;;;;;;;;;;19.20;1.00;;;;;;4937922;29;19935;-94
2022/07/16 09:27:23;;;;;;;;;;;18.80;1.00;;;;;;4938822;29;19927;-95
2022/07/16 09:29:51;;;;;;;;;;;18.50;99.90;;;;;;4938485;29;20441;-92
2022/07/16 09:32:26;;;;;;;;;;;18.60;1.00;;;;;;4936234;29;19926;-91
2022/07/16 09:35:33;;;;;;;;;;;19.10;99.90;;;;;;4944558;29;19934;-95
2022/07/16 09:38:24;;;;;;;;;;;19.50;99.90;;;;;;4944869;29;19927;-96
2022/07/16 09:44:04;;;;;;;;;;;20.70;1.00;;;;;;4946879;29;19987;-94
2022/07/16 09:46:32;;;;;;;;;;;20.80;99.90;;;;;;4946441;29;19982;-94
2022/07/16 09:49:07;;;;;;;;;;;21.00;17.90;;;;;;4938405;29;19934;-95
2022/07/16 09:51:46;;;;;;;;;;;20.90;1.00;;;;;;4946743;29;19999;-95
2022/07/16 09:54:36;;;;;;;666.07;419.60;;;21.10;1.00;;;;;;4935125;29;20023;-93
2022/07/16 09:57:29;;;;;;;672.87;424.37;;;21.60;1.00;;;;;;4931069;29;20209;-93
2022/07/16 10:00:01;;;;;;;667.43;426.03;;;21.60;99.90;;;;;;4941445;29;20690;-93
2022/07/16 10:02:54;;;;;;;670.93;438.87;;;21.70;99.90;;;;;;4941645;29;20196;-96
2022/07/16 10:05:50;;;;;;;667.33;431.17;;;22.00;1.00;;;;;;4942224;29;20292;-95
2022/07/16 10:08:38;;;;;;;674.47;446.63;;;22.60;1.00;;;;;;4938591;29;20209;-94
2022/07/16 10:11:41;;;;;;;677.83;461.80;;;23.10;1.00;;;;;;4942752;29;20220;-96
2022/07/16 10:14:12;;;;;;;;;;;23.10;1.00;;;;;;4935326;29;20621;-89
2022/07/16 10:16:57;;;;;;;678.23;465.70;;;22.60;1.00;;;;;;4931373;29;20388;-85
2022/07/16 10:19:34;;;;;;;674.50;455.17;;;22.00;1.00;;;;;;4920435;29;20359;-88
2022/07/16 10:22:17;;;;;;;;;;;21.60;1.00;;;;;;4918882;29;20119;-88
2022/07/16 10:24:48;;;;;;;682.90;462.20;;;21.40;1.00;;;;;;4917254;29;20423;-87
2022/07/16 10:27:30;;;;;;;679.53;457.27;;;21.70;1.00;;;;;;4914900;29;20201;-87
2022/07/16 10:30:19;;;;;;;682.53;460.27;;;22.00;1.00;;;;;;4923102;29;20619;-84
2022/07/16 10:33:16;;;;;;;682.73;460.47;;;22.30;1.00;;;;;;4934594;29;20204;-88
2022/07/16 10:35:47;;;;;;;679.03;455.03;;;22.50;1.00;;;;;;4917340;29;20201;-88
2022/07/16 10:38:18;;;;;;;681.97;459.27;;;22.50;1.00;;;;;;4923100;29;20327;-88
2022/07/16 10:40:47;;;;;;;677.87;450.80;;;22.60;1.00;;;;;;4924826;29;20232;-87
2022/07/16 10:43:17;;;;;;;677.93;454.43;;;22.60;1.00;;;;;;4934341;29;20205;-88
2022/07/16 10:45:59;;;;;;;680.23;458.20;;;22.40;1.00;;;;;;4933557;29;20194;-87
2022/07/16 10:48:30;;;;;;;679.10;459.33;;;22.30;99.90;;;;;;4930574;29;20205;-90
2022/07/16 10:51:15;;;;;;;679.90;458.17;;;22.50;99.90;;;;;;4927657;29;20280;-87
2022/07/16 10:54:16;;;;;;;679.87;464.17;;;22.50;99.90;;;;;;4933651;29;20233;-88
2022/07/16 10:56:48;;;;;;;678.07;456.27;;;22.20;99.90;;;;;;4931224;29;20579;-86
2022/07/16 10:59:17;;;;;;;675.67;456.07;;;21.80;99.90;;;;;;4933019;28;20209;-87
2022/07/16 11:01:48;;;;;;;674.03;452.83;;;21.80;99.90;;;;;;4934295;29;20295;-86
2022/07/16 11:04:16;;;;;;;678.17;463.10;;;21.90;99.90;;;;;;4932308;29;20312;-84
2022/07/16 11:06:49;;;;;;;681.03;465.73;;;22.20;99.90;;;;;;4934116;29;20209;-82
2022/07/16 11:09:26;;;;;;;678.97;462.97;;;22.40;99.90;;;;;;4933147;29;20227;-89
2022/07/16 11:11:55;;;;;;;678.60;464.03;;;22.70;99.90;;;;;;4937389;29;20219;-86
2022/07/16 11:14:32;;;;;;;681.90;471.50;;;22.90;99.90;;;;;;4939856;29;20656;-85
2022/07/16 11:17:01;;;;;;;;;;;22.80;99.90;;;;;;4937723;29;20203;-85
2022/07/16 11:19:28;;;;;;;682.63;475.83;;;22.50;99.90;;;;;;4937997;29;20094;-88
2022/07/16 11:21:58;;;;;;;676.97;464.67;;;22.30;99.90;;;;;;4937114;29;20288;-87
2022/07/16 11:24:27;;;;;;;679.37;460.13;;;22.20;99.90;;;;;;4937211;29;20315;-86
2022/07/16 11:26:58;;;;;;;676.60;464.57;;;22.30;99.90;;;;;;4937415;29;20201;-89
2022/07/16 11:29:27;;;;;;;679.17;466.67;;;22.50;99.90;;;;;;4936372;29;20696;-86
2022/07/16 11:31:56;;;;;;;673.50;454.70;;;22.50;99.90;;;;;;4937249;29;20664;-88
2022/07/16 11:34:25;;;;;;;675.57;451.77;;;22.50;99.90;;;;;;4937018;29;20197;-86
2022/07/16 11:36:55;;;;;;;677.27;465.73;;;22.60;99.90;;;;;;4936514;29;20209;-87
2022/07/16 11:39:24;;;;;;;683.50;479.30;;;22.80;99.90;;;;;;4926585;29;20251;-86
2022/07/16 11:41:53;;;;;;;680.83;476.10;;;23.10;99.90;;;;;;4917847;29;20205;-86
2022/07/16 11:44:22;;;;;;;681.37;482.53;;;23.10;99.90;;;;;;4921521;29;20296;-86
2022/07/16 11:46:52;;;;;;;685.20;489.37;;;23.00;99.90;;;;;;4924308;29;20231;-86
2022/07/16 11:49:29;;;;;;;684.90;484.97;;;22.90;99.90;;;;;;4919247;29;20213;-86
2022/07/16 11:52:01;;;;;;;683.20;486.60;;;22.90;99.90;;;;;;4924464;29;20204;-89
2022/07/16 11:54:31;;;;;;;684.83;487.37;;;22.90;99.90;;;;;;4931391;29;20201;-86
2022/07/16 11:56:59;;;;;;;684.90;492.07;;;22.90;99.90;;;;;;4937205;29;20221;-87
2022/07/16 11:59:32;;;;;;;686.57;497.07;;;23.00;99.90;;;;;;4936799;29;20289;-88
2022/07/16 12:02:02;;;;;;;686.87;495.30;;;23.20;99.90;;;;;;4937360;29;20244;-86
2022/07/16 12:04:39;;;;;;;684.67;492.00;;;23.40;99.90;;;;;;4931059;29;20609;-84
2022/07/16 12:07:09;;;;;;;683.97;497.57;;;23.30;99.90;;;;;;4937568;29;20596;-88
2022/07/16 12:09:38;;;;;;;683.07;485.97;;;23.00;99.90;;;;;;4936543;29;20284;-89
2022/07/16 12:12:10;;;;;;;686.60;491.43;;;22.60;99.90;;;;;;4936647;29;20205;-87
2022/07/16 12:14:57;;;;;;;678.60;473.20;;;22.20;99.90;;;;;;4935620;29;20252;-87
2022/07/16 12:17:27;;;;;;;676.93;468.70;;;22.10;99.90;;;;;;4936999;29;20213;-86
2022/07/16 12:20:15;;;;;;;675.50;458.63;;;22.10;99.90;;;;;;4936643;29;20205;-85
2022/07/16 12:22:49;;;;;;;674.67;456.83;;;22.30;99.90;;;;;;4936334;29;20228;-87
2022/07/16 12:25:21;;;;;;;675.50;457.60;;;22.40;99.90;;;;;;4935132;29;20302;-88
2022/07/16 12:27:49;;;;;;;679.00;467.00;;;22.50;99.90;;;;;;4936370;29;20205;-87
2022/07/16 12:30:17;;;;;;;678.60;459.50;;;22.50;99.90;;;;;;4936262;29;20224;-89
2022/07/16 12:32:57;;;;;;;681.67;467.17;;;22.30;99.90;;;;;;4936595;29;20196;-84
2022/07/16 12:35:41;;;;;;;676.70;463.30;;;22.30;99.90;;;;;;4934150;29;20204;-88
2022/07/16 12:38:09;;;;;;;675.63;458.47;;;22.10;99.90;;;;;;4930031;29;20232;-87
2022/07/16 12:40:37;;;;;;;676.83;457.60;;;22.00;99.90;;;;;;4936422;29;20204;-88
2022/07/16 12:43:05;;;;;;;673.93;447.43;;;21.90;99.90;;;;;;4936176;29;20256;-85
2022/07/16 12:45:42;;;;;;;675.70;460.37;;;22.10;99.90;;;;;;4936067;29;20295;-86
2022/07/16 12:48:10;;;;;;;677.63;456.10;;;22.20;99.90;;;;;;4931239;29;20205;-88
2022/07/16 12:50:40;;;;;;;677.83;459.20;;;22.30;99.90;;;;;;4920442;29;20780;-86
2022/07/16 12:53:08;;;;;;;677.10;458.47;;;22.30;99.90;;;;;;4924359;29;20289;-86
2022/07/16 13:01:09;;;;;;;679.60;471.23;;;22.60;99.90;;;;;;4917485;29;20197;-87
2022/07/16 13:03:37;;;;;;;681.67;468.60;;;22.80;99.90;;;;;;4917843;29;20693;-88
2022/07/16 13:06:06;;;;;;;679.80;462.60;;;22.90;99.90;;;;;;4922602;29;20268;-86
2022/07/16 13:08:36;;;;;;;676.77;461.20;;;22.70;99.90;;;;;;4924865;29;20209;-88
2022/07/16 13:11:04;;;;;;;678.70;463.90;;;22.50;99.90;;;;;;4919902;29;20290;-88
2022/07/16 13:13:31;;;;;;;677.37;468.10;;;22.10;99.90;;;;;;4920198;29;20201;-86
2022/07/16 13:16:01;;;;;;;678.07;460.57;;;21.80;99.90;;;;;;4923185;29;20221;-88
2022/07/16 13:18:30;;;;;;;675.70;460.30;;;21.60;99.90;;;;;;4917071;29;20565;-88
2022/07/16 13:20:59;;;;;;;678.97;459.13;;;21.50;99.90;;;;;;4920167;29;20280;-87
2022/07/16 13:23:28;;;;;;;677.33;446.07;;;21.50;99.90;;;;;;4919778;29;20612;-89
2022/07/16 13:25:56;;;;;;;674.83;447.83;;;21.60;99.90;;;;;;4916143;29;20572;-86
2022/07/16 13:28:24;;;;;;;670.90;435.97;;;21.60;99.90;;;;;;4918106;29;20712;-89
2022/07/16 13:30:52;;;;;;;674.77;442.63;;;21.60;99.90;;;;;;4921071;29;20212;-87
2022/07/16 13:33:20;;;;;;;671.93;439.50;;;21.70;99.90;;;;;;4925968;29;20268;-85
2022/07/16 13:35:48;;;;;;;682.70;449.30;;;21.70;99.90;;;;;;4925245;29;20197;-88
2022/07/16 13:38:15;;;;;;;673.93;443.43;;;21.70;99.90;;;;;;4929033;29;20229;-88
2022/07/16 13:40:48;;;;;;;674.70;446.80;;;21.80;99.90;;;;;;4934852;29;20216;-87
2022/07/16 13:43:16;;;;;;;672.57;441.20;;;21.70;99.90;;;;;;4934628;29;20292;-86
2022/07/16 13:45:44;;;;;;;673.03;440.93;;;21.50;99.90;;;;;;4936280;29;20272;-86
2022/07/16 13:48:11;;;;;;;671.80;434.93;;;21.50;99.90;;;;;;4935281;29;20195;-85
2022/07/16 13:50:39;;;;;;;672.70;433.97;;;21.50;99.90;;;;;;4935809;29;20201;-89
2022/07/16 13:53:24;;;;;;;673.90;436.57;;;21.50;99.90;;;;;;4935503;29;20690;-86
2022/07/16 13:55:53;;;;;;;669.43;431.13;;;21.50;99.90;;;;;;4923264;29;20196;-88
2022/07/16 13:58:22;;;;;;;672.23;437.33;;;21.60;99.90;;;;;;4936298;29;20206;-86
2022/07/16 14:00:54;;;;;;;671.70;438.03;;;21.50;99.90;;;;;;4937552;29;20229;-85
2022/07/16 14:03:24;;;;;;;675.03;433.43;;;21.40;99.90;;;;;;4935051;29;20194;-89
2022/07/16 14:05:52;;;;;;;671.07;433.83;;;21.20;99.90;;;;;;4934919;29;20216;-87
2022/07/16 14:08:20;;;;;;;673.93;435.10;;;21.20;99.90;;;;;;4934298;29;20704;-87
2022/07/16 14:10:51;;;;;;;674.80;429.57;;;21.30;99.90;;;;;;4936059;29;20200;-87
2022/07/16 14:13:21;;;;;;;673.87;434.07;;;21.40;99.90;;;;;;4934067;29;20549;-88
2022/07/16 14:15:49;;;;;;;669.40;428.20;;;21.40;99.90;;;;;;4934413;29;20204;-88
2022/07/16 14:18:16;;;;;;;672.77;432.87;;;21.30;99.90;;;;;;4934531;29;20205;-83
2022/07/16 14:20:44;;;;;;;670.00;425.67;;;21.30;99.90;;;;;;4934919;29;20244;-88
2022/07/16 14:23:13;;;;;;;674.27;421.87;;;21.20;99.90;;;;;;4935426;29;20204;-87
2022/07/16 14:25:42;;;;;;;664.83;414.13;;;21.20;99.90;;;;;;4934468;29;20221;-86
2022/07/16 14:28:11;;;;;;;664.30;420.77;;;21.20;99.90;;;;;;4934536;29;20232;-84
2022/07/16 14:30:41;;;;;;;671.07;432.10;;;21.20;99.90;;;;;;4935774;29;20182;-85
2022/07/16 14:33:09;;;;;;;671.97;423.60;;;20.90;99.90;;;;;;4925393;29;20194;-86
2022/07/16 14:35:36;;;;;;;668.87;423.57;;;20.50;99.90;;;;;;4931519;29;20201;-89
2022/07/16 14:38:04;;;;;;;664.90;409.80;;;20.20;99.90;;;;;;4934569;29;20232;-87
2022/07/16 14:40:32;;;;;;;667.23;411.20;;;20.20;99.90;;;;;;4933734;29;20274;-87
2022/07/16 14:43:00;;;;;;;665.70;405.93;;;20.20;99.90;;;;;;4935504;29;20203;-88
2022/07/16 14:45:30;;;;;;;670.07;408.93;;;20.30;99.90;;;;;;4936025;29;20220;-88
2022/07/16 14:47:59;;;;;;;665.87;406.97;;;20.40;99.90;;;;;;4938043;29;20281;-85
2022/07/16 14:50:27;;;;;;;665.33;407.20;;;20.40;99.90;;;;;;4937781;29;20256;-85
2022/07/16 14:52:55;;;;;;;666.40;408.70;;;20.40;99.90;;;;;;4937950;29;20208;-88
2022/07/16 14:55:22;;;;;;;663.93;401.67;;;20.40;99.90;;;;;;4937852;29;20207;-87
2022/07/16 14:57:50;;;;;;;664.10;407.27;;;20.40;99.90;;;;;;4938291;29;20211;-86
2022/07/16 15:00:18;;;;;;;665.47;404.93;;;20.40;99.90;;;;;;4937945;29;20209;-86
2022/07/16 15:02:46;;;;;;;662.70;393.10;;;20.30;99.90;;;;;;4936741;29;20215;-85
2022/07/16 15:05:15;;;;;;;666.13;404.23;;;20.20;99.90;;;;;;4936742;29;20225;-87
2022/07/16 15:07:44;;;;;;;663.30;396.07;;;20.00;99.90;;;;;;4937574;29;20197;-89
2022/07/16 15:10:11;;;;;;;664.93;386.83;;;19.90;99.90;;;;;;4937777;29;20279;-83
2022/07/16 15:12:39;;;;;;;662.33;387.70;;;19.80;99.90;;;;;;4937939;29;20248;-88
2022/07/16 15:15:07;;;;;;;667.80;388.30;;;19.70;99.90;;;;;;4937547;29;20260;-86